Ada, South Dakota
Current Conditions -  °F | °C
As of 3:53 PM on Saturday 20 Dec 2014 (Local Time) from KHEI Reporting Station
Clear Clear  
Wind Chill: 29°   Ceiling: Unl
Heat Index: 34°   Visibility: 10mi
Dew Point: 25°   Wind: 6mph
Humidity: 70%   Direction: 270°W
Pressure: 29.84"   Gusts: NA
Location:  45.5161°N, 102.519°W
Report Text: KHEI 202253Z AUTO 27005KT 10SM CLR 01/M04 A2984 RMK AO2 SLP130 T00111039
Loading
Personal Weather Stations






























Interactive Weather Map New forecast layout! Learn more

10-Day Weather Forecast

Advertisements
Track Severe Weather on mobile